createdAt,value
2022-10-24T06:08:36.630Z,23.33
2022-10-24T06:11:15.647Z,22.20
2022-10-24T06:13:52.695Z,22.53
2022-10-24T06:16:31.046Z,22.87
2022-10-24T06:19:07.796Z,23.20
2022-10-24T06:21:44.916Z,24.17
2022-10-24T06:24:24.256Z,21.83
2022-10-24T06:27:01.840Z,21.90
2022-10-24T06:29:38.791Z,22.20
2022-10-24T06:32:16.036Z,23.37
2022-10-24T06:34:54.134Z,23.53
2022-10-24T06:37:31.954Z,22.40
2022-10-24T06:40:13.131Z,22.73
2022-10-24T06:42:50.840Z,22.97
2022-10-24T06:45:28.279Z,24.00
2022-10-24T06:48:05.721Z,23.10
2022-10-24T06:50:42.951Z,23.77
2022-10-24T06:56:04.315Z,23.80
2022-10-24T06:58:42.419Z,24.43
2022-10-24T07:01:23.279Z,23.23
2022-10-24T07:04:00.988Z,24.60
2022-10-24T07:06:38.249Z,24.97
2022-10-24T07:09:17.568Z,24.70
2022-10-24T07:11:57.148Z,24.33
2022-10-24T07:14:34.438Z,26.60
2022-10-24T07:17:11.333Z,25.40
2022-10-24T07:19:48.426Z,24.73
2022-10-24T07:22:25.582Z,25.67
2022-10-24T07:25:03.818Z,26.00
2022-10-24T07:27:44.050Z,27.60
2022-10-24T07:30:23.983Z,26.80
2022-10-24T07:33:01.261Z,26.53
2022-10-24T07:35:44.708Z,26.60
2022-10-24T07:38:22.115Z,28.15
2022-10-24T07:40:59.326Z,26.73
2022-10-24T07:43:38.618Z,26.27
2022-10-24T07:46:19.162Z,27.90
2022-10-24T07:48:56.587Z,27.87
2022-10-24T07:51:33.659Z,29.40
2022-10-24T07:54:10.625Z,31.33
2022-10-24T07:56:47.870Z,29.00
2022-10-24T07:59:41.383Z,29.43
2022-10-24T08:02:20.708Z,29.33
2022-10-24T08:04:57.428Z,29.73
2022-10-24T08:07:34.562Z,29.13
2022-10-24T08:10:15.628Z,29.47
2022-10-24T08:12:52.708Z,29.43
2022-10-24T08:15:32.087Z,29.77
2022-10-24T08:18:09.485Z,31.13
2022-10-24T08:20:46.205Z,32.30
2022-10-24T08:23:25.450Z,32.43
2022-10-24T08:26:02.549Z,31.03
2022-10-24T08:28:40.094Z,29.40
2022-10-24T08:31:22.086Z,31.40
2022-10-24T08:33:59.913Z,30.97
2022-10-24T08:36:39.192Z,31.13
2022-10-24T08:39:16.485Z,30.40
2022-10-24T08:42:00.169Z,30.57
2022-10-24T08:44:41.163Z,31.23
2022-10-24T08:47:29.817Z,32.03
2022-10-24T08:50:27.573Z,29.37
2022-10-24T08:53:10.331Z,29.37
2022-10-24T08:55:51.123Z,31.52
2022-10-24T08:58:31.499Z,30.47
2022-10-24T09:01:20.486Z,32.80
2022-10-24T09:04:02.647Z,31.30
2022-10-24T09:06:40.335Z,32.53
2022-10-24T09:09:26.780Z,32.03
2022-10-24T09:12:05.732Z,31.17
2022-10-24T09:14:46.199Z,30.40
2022-10-24T09:17:26.633Z,30.40
2022-10-24T09:20:27.120Z,31.17
2022-10-24T09:23:08.559Z,32.83
2022-10-24T09:25:50.948Z,31.40
2022-10-24T09:28:28.781Z,32.53
2022-10-24T09:31:16.522Z,32.30
2022-10-24T09:33:56.926Z,30.63
2022-10-24T09:36:36.498Z,31.70
2022-10-24T09:39:32.361Z,30.10
2022-10-24T09:42:09.258Z,30.83
2022-10-24T09:44:47.339Z,28.50
2022-10-24T09:47:32.748Z,30.77
2022-10-24T09:50:23.218Z,28.90
2022-10-24T09:53:04.856Z,30.10
2022-10-24T09:55:48.959Z,29.83
2022-10-24T09:58:36.059Z,30.17
2022-10-24T10:01:24.355Z,29.77
2022-10-24T10:04:09.999Z,29.90
2022-10-24T10:06:50.204Z,30.20
2022-10-24T10:09:35.326Z,29.25
2022-10-24T10:12:31.272Z,29.92
2022-10-24T10:15:23.407Z,30.03
2022-10-24T10:18:04.419Z,30.13
2022-10-24T10:20:45.503Z,30.20
2022-10-24T10:23:31.939Z,28.98
2022-10-24T10:26:24.249Z,29.15
2022-10-24T10:29:08.817Z,28.60
2022-10-24T10:31:48.408Z,30.88
2022-10-24T10:34:29.000Z,29.58
2022-10-24T10:37:36.316Z,31.17
2022-10-24T10:40:29.507Z,30.67
2022-10-24T10:43:29.067Z,28.88
2022-10-24T10:46:24.432Z,29.17
2022-10-24T10:49:14.207Z,27.35
2022-10-24T10:51:55.685Z,27.70
2022-10-24T10:55:05.839Z,26.85
2022-10-24T10:57:55.537Z,25.83
2022-10-24T11:00:45.248Z,25.65
2022-10-24T11:03:36.668Z,26.73
2022-10-24T11:06:34.307Z,25.05
2022-10-24T11:09:27.830Z,25.08
2022-10-24T11:12:14.867Z,25.98
2022-10-24T11:14:58.612Z,25.13
2022-10-24T11:20:28.401Z,25.27
2022-10-24T11:23:18.409Z,24.13
2022-10-24T11:26:00.488Z,24.05
2022-10-24T11:28:45.974Z,24.67
2022-10-24T11:31:26.864Z,23.35
2022-10-24T11:34:10.957Z,23.80
2022-10-24T11:36:55.818Z,25.02
2022-10-24T11:39:37.789Z,21.83
2022-10-24T11:42:24.563Z,21.98
2022-10-24T11:45:08.812Z,23.05
2022-10-24T11:47:56.682Z,23.40
2022-10-24T11:50:41.404Z,24.10
2022-10-24T11:53:50.431Z,23.17
2022-10-24T11:56:40.461Z,24.35
2022-10-24T11:59:24.641Z,24.75
2022-10-24T12:02:51.511Z,25.30
2022-10-24T12:05:46.535Z,23.17
2022-10-24T12:08:52.551Z,21.85
2022-10-24T12:12:12.815Z,20.70
2022-10-24T12:15:27.923Z,20.50
2022-10-24T12:18:14.581Z,19.67
2022-10-24T12:20:57.702Z,18.42
2022-10-24T12:23:35.506Z,18.95
2022-10-24T12:26:22.513Z,19.98
2022-10-24T12:29:02.062Z,19.80
2022-10-24T12:31:41.062Z,19.83
2022-10-24T12:34:49.425Z,20.17
2022-10-24T12:37:43.293Z,19.33
2022-10-24T12:40:58.067Z,20.73
2022-10-24T12:43:38.013Z,20.42
2022-10-24T12:46:57.537Z,21.65
2022-10-24T12:49:35.705Z,20.27
2022-10-24T12:53:19.300Z,21.60
2022-10-24T12:56:22.364Z,23.20
2022-10-24T12:59:08.175Z,25.40
2022-10-24T13:01:45.761Z,25.70
2022-10-24T13:04:58.715Z,24.92
2022-10-24T13:08:07.499Z,26.92
2022-10-24T13:11:24.286Z,26.08
2022-10-24T13:14:26.016Z,28.55
2022-10-24T13:17:12.018Z,27.70
2022-10-24T13:19:49.397Z,27.02
2022-10-24T13:22:36.410Z,28.35
2022-10-24T13:25:34.497Z,27.50
2022-10-24T13:28:43.792Z,26.77
2022-10-24T13:31:52.252Z,24.58
2022-10-24T13:34:41.275Z,22.10
2022-10-24T13:37:26.887Z,23.60
2022-10-24T13:40:14.136Z,22.10
2022-10-24T13:42:57.108Z,21.92
2022-10-24T13:45:50.927Z,22.30
2022-10-24T13:48:33.845Z,21.23
2022-10-24T13:51:24.252Z,22.10
2022-10-24T13:54:07.174Z,22.00
2022-10-24T13:56:48.382Z,20.80
2022-10-24T13:59:39.771Z,22.75
2022-10-24T14:02:28.467Z,21.13
2022-10-24T14:05:09.107Z,18.85
2022-10-24T14:07:48.052Z,19.02
2022-10-24T14:10:25.684Z,20.23
2022-10-24T14:13:04.143Z,21.65
2022-10-24T14:15:40.983Z,19.63
2022-10-24T14:18:23.320Z,18.92
2022-10-24T14:21:02.566Z,19.95
2022-10-24T14:23:43.843Z,18.00
2022-10-24T14:26:24.873Z,17.75
2022-10-24T14:29:03.355Z,17.58
2022-10-24T14:31:40.279Z,18.73
2022-10-24T14:34:25.193Z,18.42
2022-10-24T14:37:06.443Z,18.33
2022-10-24T14:39:44.527Z,18.33
2022-10-24T14:42:22.112Z,16.60
2022-10-24T14:45:00.340Z,17.98
2022-10-24T14:47:41.752Z,17.48
2022-10-24T14:50:48.217Z,18.08
2022-10-24T14:53:28.972Z,16.45
2022-10-24T14:56:23.208Z,18.38
2022-10-24T14:59:03.558Z,17.40
2022-10-24T15:01:41.046Z,18.35
2022-10-24T15:04:34.729Z,18.77
2022-10-24T15:07:33.327Z,17.60
2022-10-24T15:10:31.929Z,17.25
2022-10-24T15:13:18.165Z,18.67
2022-10-24T15:15:58.465Z,18.05
2022-10-24T15:18:44.549Z,18.65
2022-10-24T15:21:25.119Z,18.08
2022-10-24T15:24:06.127Z,20.48
2022-10-24T15:26:46.677Z,17.90
2022-10-24T15:29:28.462Z,18.67
2022-10-24T15:32:05.250Z,18.67
2022-10-24T15:34:42.725Z,16.75
2022-10-24T15:37:23.466Z,17.48
2022-10-24T15:40:07.896Z,18.02
2022-10-24T15:42:45.802Z,17.08
2022-10-24T15:45:23.966Z,17.23
2022-10-24T15:48:01.187Z,17.60
2022-10-24T15:50:39.175Z,17.83
2022-10-24T15:53:22.604Z,18.15
2022-10-24T15:56:02.493Z,17.52
2022-10-24T15:58:39.586Z,17.60
2022-10-24T16:01:28.824Z,17.08
2022-10-24T16:04:06.343Z,17.90
2022-10-24T16:06:43.533Z,18.75
2022-10-24T16:09:23.231Z,17.10
2022-10-24T16:12:03.203Z,18.55
2022-10-24T16:14:40.214Z,19.08
2022-10-24T16:17:17.763Z,17.90
2022-10-24T16:19:54.528Z,17.83
2022-10-24T16:22:31.984Z,19.13
2022-10-24T16:25:09.963Z,18.70
2022-10-24T16:27:51.343Z,19.20
2022-10-24T16:30:31.036Z,19.60
2022-10-24T16:33:09.204Z,20.90
2022-10-24T16:35:47.937Z,21.92
2022-10-24T16:38:26.306Z,22.27
2022-10-24T16:41:04.239Z,23.42
2022-10-24T16:43:47.640Z,23.25
2022-10-24T16:46:29.293Z,22.38
2022-10-24T16:49:07.291Z,22.65
2022-10-24T16:51:47.634Z,22.48
2022-10-24T16:54:25.416Z,21.63
2022-10-24T16:57:04.489Z,20.25
2022-10-24T16:59:45.701Z,20.17
2022-10-24T17:02:22.766Z,21.15
2022-10-24T17:05:00.390Z,20.55
2022-10-24T17:07:39.307Z,20.67
2022-10-24T17:10:22.156Z,21.90
2022-10-24T17:13:03.013Z,21.67
2022-10-24T17:15:44.255Z,22.85
2022-10-24T17:18:24.137Z,20.92
2022-10-24T17:21:06.669Z,22.70
2022-10-24T17:23:45.664Z,23.33
2022-10-24T17:26:24.427Z,23.67
2022-10-24T17:29:06.143Z,22.05
2022-10-24T17:31:48.912Z,22.90
2022-10-24T17:34:27.593Z,21.80
2022-10-24T17:37:18.585Z,23.77
2022-10-24T17:40:02.898Z,22.98
2022-10-24T17:42:42.303Z,22.52
2022-10-24T17:45:27.093Z,22.08
2022-10-24T17:48:07.933Z,22.83
2022-10-24T17:50:48.122Z,21.80
2022-10-24T17:53:36.319Z,22.30
2022-10-24T17:56:15.375Z,24.25
2022-10-24T17:58:53.925Z,22.92
2022-10-24T18:01:33.997Z,22.75
2022-10-24T18:04:13.972Z,23.50
2022-10-24T18:06:52.532Z,22.92
2022-10-24T18:09:32.363Z,23.83
2022-10-24T18:12:11.191Z,24.67
2022-10-24T18:14:48.810Z,23.17
2022-10-24T18:17:26.522Z,23.58
2022-10-24T18:20:08.654Z,22.80
2022-10-24T18:22:47.648Z,22.33
2022-10-24T18:25:25.430Z,22.65
2022-10-24T18:28:03.290Z,21.63
2022-10-24T18:30:41.442Z,22.17
2022-10-24T18:33:22.882Z,23.27
2022-10-24T18:36:10.486Z,23.13
2022-10-24T18:38:49.643Z,23.88
2022-10-24T18:41:45.791Z,24.40
2022-10-24T18:44:31.422Z,25.65
2022-10-24T18:47:11.830Z,24.00
2022-10-24T18:49:50.142Z,23.48
2022-10-24T18:52:46.658Z,22.08
2022-10-24T18:55:29.218Z,23.75
2022-10-24T18:58:08.768Z,23.52
2022-10-24T19:00:49.962Z,22.90
2022-10-24T19:03:37.565Z,23.40
2022-10-24T19:06:27.610Z,21.77
2022-10-24T19:09:20.068Z,22.38
2022-10-24T19:11:58.941Z,22.30
2022-10-24T19:14:38.206Z,23.23
2022-10-24T19:17:17.481Z,22.55
2022-10-24T19:20:01.460Z,22.25
2022-10-24T19:22:40.121Z,23.15
2022-10-24T19:25:24.615Z,23.38
2022-10-24T19:28:03.662Z,25.15
2022-10-24T19:30:48.963Z,24.00
2022-10-24T19:33:42.105Z,23.52
2022-10-24T19:36:23.252Z,23.60
2022-10-24T19:39:02.582Z,23.52
2022-10-24T19:41:46.220Z,24.60
2022-10-24T19:44:25.653Z,24.63
2022-10-24T19:47:07.721Z,24.05
2022-10-24T19:49:48.372Z,23.48
2022-10-24T19:52:26.191Z,24.90
2022-10-24T19:55:03.994Z,24.52
2022-10-24T19:57:44.919Z,24.20
2022-10-24T20:00:26.052Z,27.42
2022-10-24T20:03:03.781Z,25.95
2022-10-24T20:05:42.961Z,23.90
2022-10-24T20:08:26.441Z,23.60
2022-10-24T20:13:45.244Z,22.00
2022-10-24T20:16:23.201Z,24.10
2022-10-24T20:19:05.261Z,22.95
2022-10-24T20:21:42.984Z,22.70
